sensor_id;sensor_type;location;lat;lon;timestamp;pressure;altitude;pressure_sealevel;temperature;humidity
65800;BME280;52544;48.116;11.660;2023-01-27T00:02:19;95669.13;;;-1.33;100.00
65800;BME280;52544;48.116;11.660;2023-01-27T00:04:45;95671.63;;;-1.30;100.00
65800;BME280;52544;48.116;11.660;2023-01-27T00:07:10;95666.34;;;-1.29;100.00
65800;BME280;52544;48.116;11.660;2023-01-27T00:09:35;95674.41;;;-1.36;100.00
65800;BME280;52544;48.116;11.660;2023-01-27T00:12:01;95666.63;;;-1.36;100.00
65800;BME280;52544;48.116;11.660;2023-01-27T00:14:45;95678.59;;;-1.32;100.00
65800;BME280;52544;48.116;11.660;2023-01-27T00:17:10;95677.66;;;-1.30;100.00
65800;BME280;52544;48.116;11.660;2023-01-27T00:19:35;95673.94;;;-1.22;100.00
65800;BME280;52544;48.116;11.660;2023-01-27T00:22:01;95672.78;;;-1.15;100.00
65800;BME280;52544;48.116;11.660;2023-01-27T00:24:45;95669.50;;;-1.20;100.00
65800;BME280;52544;48.116;11.660;2023-01-27T00:27:11;95670.16;;;-1.15;100.00
65800;BME280;52544;48.116;11.660;2023-01-27T00:29:37;95656.41;;;-1.17;100.00
65800;BME280;52544;48.116;11.660;2023-01-27T00:32:03;95664.13;;;-1.16;100.00
65800;BME280;52544;48.116;11.660;2023-01-27T00:34:47;95662.28;;;-1.12;100.00
65800;BME280;52544;48.116;11.660;2023-01-27T00:37:13;95663.00;;;-1.09;100.00
65800;BME280;52544;48.116;11.660;2023-01-27T00:39:39;95655.41;;;-1.13;100.00
65800;BME280;52544;48.116;11.660;2023-01-27T00:42:04;95645.56;;;-1.29;100.00
65800;BME280;52544;48.116;11.660;2023-01-27T00:44:30;95653.50;;;-1.32;100.00
65800;BME280;52544;48.116;11.660;2023-01-27T00:46:56;95654.91;;;-1.23;100.00
65800;BME280;52544;48.116;11.660;2023-01-27T00:49:21;95654.91;;;-1.23;100.00
65800;BME280;52544;48.116;11.660;2023-01-27T00:51:47;95651.75;;;-1.31;100.00
65800;BME280;52544;48.116;11.660;2023-01-27T00:54:12;95669.69;;;-1.25;100.00
65800;BME280;52544;48.116;11.660;2023-01-27T00:56:38;95666.50;;;-1.32;100.00
65800;BME280;52544;48.116;11.660;2023-01-27T01:01:33;95663.91;;;-1.32;100.00
65800;BME280;52544;48.116;11.660;2023-01-27T01:03:59;95664.00;;;-1.35;100.00
65800;BME280;52544;48.116;11.660;2023-01-27T01:06:24;95659.59;;;-1.33;100.00
65800;BME280;52544;48.116;11.660;2023-01-27T01:08:49;95674.50;;;-1.38;100.00
65800;BME280;52544;48.116;11.660;2023-01-27T01:11:19;95668.72;;;-1.46;100.00
65800;BME280;52544;48.116;11.660;2023-01-27T01:13:46;95678.94;;;-1.41;100.00
65800;BME280;52544;48.116;11.660;2023-01-27T01:16:20;95676.75;;;-1.52;100.00
65800;BME280;52544;48.116;11.660;2023-01-27T01:18:46;95682.38;;;-1.41;100.00
65800;BME280;52544;48.116;11.660;2023-01-27T01:21:12;95675.91;;;-1.53;100.00
65800;BME280;52544;48.116;11.660;2023-01-27T01:23:42;95677.03;;;-1.60;100.00
65800;BME280;52544;48.116;11.660;2023-01-27T01:26:09;95690.63;;;-1.53;100.00
65800;BME280;52544;48.116;11.660;2023-01-27T01:28:35;95676.63;;;-1.49;100.00
65800;BME280;52544;48.116;11.660;2023-01-27T01:31:05;95686.00;;;-1.45;100.00
65800;BME280;52544;48.116;11.660;2023-01-27T01:33:31;95681.53;;;-1.41;100.00
65800;BME280;52544;48.116;11.660;2023-01-27T01:36:02;95679.94;;;-1.44;100.00
65800;BME280;52544;48.116;11.660;2023-01-27T01:38:27;95667.13;;;-1.48;100.00
65800;BME280;52544;48.116;11.660;2023-01-27T01:40:53;95681.03;;;-1.51;100.00
65800;BME280;52544;48.116;11.660;2023-01-27T01:43:18;95675.09;;;-1.55;100.00
65800;BME280;52544;48.116;11.660;2023-01-27T01:45:56;95664.97;;;-1.61;100.00
65800;BME280;52544;48.116;11.660;2023-01-27T01:51:18;95658.34;;;-1.46;100.00
65800;BME280;52544;48.116;11.660;2023-01-27T01:54:01;95656.56;;;-1.44;100.00
65800;BME280;52544;48.116;11.660;2023-01-27T01:56:41;95641.88;;;-1.45;100.00
65800;BME280;52544;48.116;11.660;2023-01-27T01:59:14;95647.06;;;-1.45;100.00
65800;BME280;52544;48.116;11.660;2023-01-27T02:01:42;95648.63;;;-1.41;100.00
65800;BME280;52544;48.116;11.660;2023-01-27T02:04:11;95659.81;;;-1.39;100.00
65800;BME280;52544;48.116;11.660;2023-01-27T02:06:42;95658.97;;;-1.39;100.00
65800;BME280;52544;48.116;11.660;2023-01-27T02:09:10;95657.56;;;-1.48;100.00
65800;BME280;52544;48.116;11.660;2023-01-27T02:11:36;95650.84;;;-1.54;100.00
65800;BME280;52544;48.116;11.660;2023-01-27T02:14:01;95649.66;;;-1.45;100.00
65800;BME280;52544;48.116;11.660;2023-01-27T02:16:27;95648.88;;;-1.47;100.00
65800;BME280;52544;48.116;11.660;2023-01-27T02:18:53;95656.44;;;-1.41;100.00
65800;BME280;52544;48.116;11.660;2023-01-27T02:21:18;95655.81;;;-1.47;100.00
65800;BME280;52544;48.116;11.660;2023-01-27T02:26:32;95659.88;;;-1.40;100.00
65800;BME280;52544;48.116;11.660;2023-01-27T02:29:07;95665.63;;;-1.32;100.00
65800;BME280;52544;48.116;11.660;2023-01-27T02:31:33;95649.19;;;-1.33;100.00
65800;BME280;52544;48.116;11.660;2023-01-27T02:34:05;95658.69;;;-1.32;100.00
65800;BME280;52544;48.116;11.660;2023-01-27T02:36:34;95649.81;;;-1.26;100.00
65800;BME280;52544;48.116;11.660;2023-01-27T02:39:02;95657.63;;;-1.26;100.00
65800;BME280;52544;48.116;11.660;2023-01-27T02:41:36;95642.94;;;-1.27;100.00
65800;BME280;52544;48.116;11.660;2023-01-27T02:44:04;95647.16;;;-1.24;100.00
65800;BME280;52544;48.116;11.660;2023-01-27T02:46:29;95647.22;;;-1.26;100.00
65800;BME280;52544;48.116;11.660;2023-01-27T02:48:55;95646.38;;;-1.27;100.00
65800;BME280;52544;48.116;11.660;2023-01-27T02:51:20;95641.06;;;-1.23;100.00
65800;BME280;52544;48.116;11.660;2023-01-27T02:53:46;95648.19;;;-1.29;100.00
65800;BME280;52544;48.116;11.660;2023-01-27T02:56:11;95650.03;;;-1.32;100.00
65800;BME280;52544;48.116;11.660;2023-01-27T02:58:37;95650.78;;;-1.29;100.00
65800;BME280;52544;48.116;11.660;2023-01-27T03:01:02;95647.25;;;-1.28;100.00
65800;BME280;52544;48.116;11.660;2023-01-27T03:03:28;95643.78;;;-1.27;100.00
65800;BME280;52544;48.116;11.660;2023-01-27T03:05:53;95637.94;;;-1.32;100.00
65800;BME280;52544;48.116;11.660;2023-01-27T03:08:19;95642.31;;;-1.34;100.00
65800;BME280;52544;48.116;11.660;2023-01-27T03:10:49;95644.00;;;-1.33;100.00
65800;BME280;52544;48.116;11.660;2023-01-27T03:13:15;95648.59;;;-1.39;100.00
65800;BME280;52544;48.116;11.660;2023-01-27T03:15:40;95647.56;;;-1.35;100.00
65800;BME280;52544;48.116;11.660;2023-01-27T03:18:24;95639.66;;;-1.32;100.00
65800;BME280;52544;48.116;11.660;2023-01-27T03:20:49;95641.84;;;-1.21;100.00
65800;BME280;52544;48.116;11.660;2023-01-27T03:23:17;95642.59;;;-1.18;100.00
65800;BME280;52544;48.116;11.660;2023-01-27T03:25:45;95641.00;;;-1.22;100.00
65800;BME280;52544;48.116;11.660;2023-01-27T03:28:11;95639.44;;;-1.26;100.00
65800;BME280;52544;48.116;11.660;2023-01-27T03:30:37;95644.97;;;-1.35;100.00
65800;BME280;52544;48.116;11.660;2023-01-27T03:33:03;95643.34;;;-1.38;100.00
65800;BME280;52544;48.116;11.660;2023-01-27T03:35:30;95640.53;;;-1.32;100.00
65800;BME280;52544;48.116;11.660;2023-01-27T03:38:01;95638.69;;;-1.30;100.00
65800;BME280;52544;48.116;11.660;2023-01-27T03:40:45;95634.59;;;-1.35;100.00
65800;BME280;52544;48.116;11.660;2023-01-27T03:43:30;95635.44;;;-1.35;100.00
65800;BME280;52544;48.116;11.660;2023-01-27T03:46:13;95624.16;;;-1.34;100.00
65800;BME280;52544;48.116;11.660;2023-01-27T03:48:52;95627.69;;;-1.36;100.00
65800;BME280;52544;48.116;11.660;2023-01-27T03:51:20;95623.84;;;-1.48;100.00
65800;BME280;52544;48.116;11.660;2023-01-27T03:53:46;95628.66;;;-1.39;100.00
65800;BME280;52544;48.116;11.660;2023-01-27T03:56:12;95634.78;;;-1.40;100.00
65800;BME280;52544;48.116;11.660;2023-01-27T03:58:38;95630.63;;;-1.45;100.00
65800;BME280;52544;48.116;11.660;2023-01-27T04:01:13;95640.00;;;-1.41;100.00
65800;BME280;52544;48.116;11.660;2023-01-27T04:03:40;95644.59;;;-1.48;100.00
65800;BME280;52544;48.116;11.660;2023-01-27T04:06:26;95640.25;;;-1.47;100.00
65800;BME280;52544;48.116;11.660;2023-01-27T04:09:11;95638.50;;;-1.47;100.00
65800;BME280;52544;48.116;11.660;2023-01-27T04:11:37;95635.78;;;-1.44;100.00
65800;BME280;52544;48.116;11.660;2023-01-27T04:14:23;95631.47;;;-1.45;100.00
65800;BME280;52544;48.116;11.660;2023-01-27T04:16:50;95634.22;;;-1.48;100.00
65800;BME280;52544;48.116;11.660;2023-01-27T04:19:16;95635.16;;;-1.51;100.00
65800;BME280;52544;48.116;11.660;2023-01-27T04:21:42;95639.41;;;-1.48;100.00
65800;BME280;52544;48.116;11.660;2023-01-27T04:24:10;95643.75;;;-1.48;100.00
65800;BME280;52544;48.116;11.660;2023-01-27T04:26:44;95644.47;;;-1.45;100.00
65800;BME280;52544;48.116;11.660;2023-01-27T04:29:11;95653.25;;;-1.49;100.00
65800;BME280;52544;48.116;11.660;2023-01-27T04:31:38;95642.88;;;-1.49;100.00
65800;BME280;52544;48.116;11.660;2023-01-27T04:34:04;95646.47;;;-1.52;100.00
65800;BME280;52544;48.116;11.660;2023-01-27T04:36:30;95634.22;;;-1.48;100.00
65800;BME280;52544;48.116;11.660;2023-01-27T04:38:55;95643.22;;;-1.58;100.00
65800;BME280;52544;48.116;11.660;2023-01-27T04:41:21;95643.03;;;-1.52;100.00
65800;BME280;52544;48.116;11.660;2023-01-27T04:43:46;95648.97;;;-1.50;100.00
65800;BME280;52544;48.116;11.660;2023-01-27T04:46:11;95641.19;;;-1.50;100.00
65800;BME280;52544;48.116;11.660;2023-01-27T04:48:37;95646.50;;;-1.53;100.00
65800;BME280;52544;48.116;11.660;2023-01-27T04:51:02;95652.56;;;-1.53;100.00
65800;BME280;52544;48.116;11.660;2023-01-27T04:53:28;95648.13;;;-1.51;100.00
65800;BME280;52544;48.116;11.660;2023-01-27T04:56:03;95646.72;;;-1.59;100.00
65800;BME280;52544;48.116;11.660;2023-01-27T04:58:29;95650.34;;;-1.63;100.00
65800;BME280;52544;48.116;11.660;2023-01-27T05:00:55;95644.31;;;-1.64;100.00
65800;BME280;52544;48.116;11.660;2023-01-27T05:03:20;95644.06;;;-1.58;100.00
65800;BME280;52544;48.116;11.660;2023-01-27T05:05:45;95649.06;;;-1.52;100.00
65800;BME280;52544;48.116;11.660;2023-01-27T05:08:11;95649.22;;;-1.56;100.00
65800;BME280;52544;48.116;11.660;2023-01-27T05:10:36;95648.97;;;-1.50;100.00
65800;BME280;52544;48.116;11.660;2023-01-27T05:13:02;95644.94;;;-1.57;100.00
65800;BME280;52544;48.116;11.660;2023-01-27T05:15:28;95646.63;;;-1.56;100.00
65800;BME280;52544;48.116;11.660;2023-01-27T05:17:54;95650.44;;;-1.66;100.00
65800;BME280;52544;48.116;11.660;2023-01-27T05:20:20;95652.25;;;-1.68;100.00
65800;BME280;52544;48.116;11.660;2023-01-27T05:22:45;95648.66;;;-1.64;100.00
65800;BME280;52544;48.116;11.660;2023-01-27T05:25:11;95657.97;;;-1.59;100.00
65800;BME280;52544;48.116;11.660;2023-01-27T05:27:45;95653.56;;;-1.57;100.00
65800;BME280;52544;48.116;11.660;2023-01-27T05:30:11;95652.66;;;-1.56;100.00
65800;BME280;52544;48.116;11.660;2023-01-27T05:32:36;95663.03;;;-1.56;100.00
65800;BME280;52544;48.116;11.660;2023-01-27T05:35:02;95664.56;;;-1.50;100.00
65800;BME280;52544;48.116;11.660;2023-01-27T05:37:27;95671.56;;;-1.52;100.00
65800;BME280;52544;48.116;11.660;2023-01-27T05:39:53;95668.84;;;-1.49;100.00
65800;BME280;52544;48.116;11.660;2023-01-27T05:42:19;95678.22;;;-1.45;100.00
65800;BME280;52544;48.116;11.660;2023-01-27T05:44:44;95672.13;;;-1.44;100.00
65800;BME280;52544;48.116;11.660;2023-01-27T05:47:10;95673.94;;;-1.46;100.00
65800;BME280;52544;48.116;11.660;2023-01-27T05:49:35;95670.75;;;-1.54;100.00
65800;BME280;52544;48.116;11.660;2023-01-27T05:52:00;95681.16;;;-1.54;100.00
65800;BME280;52544;48.116;11.660;2023-01-27T05:54:26;95677.53;;;-1.50;100.00
65800;BME280;52544;48.116;11.660;2023-01-27T05:56:51;95681.72;;;-1.46;100.00
65800;BME280;52544;48.116;11.660;2023-01-27T05:59:17;95688.66;;;-1.46;100.00
65800;BME280;52544;48.116;11.660;2023-01-27T06:01:42;95692.91;;;-1.44;100.00
65800;BME280;52544;48.116;11.660;2023-01-27T06:04:08;95695.44;;;-1.42;100.00
65800;BME280;52544;48.116;11.660;2023-01-27T06:06:34;95691.09;;;-1.42;100.00
65800;BME280;52544;48.116;11.660;2023-01-27T06:08:59;95697.94;;;-1.39;100.00
65800;BME280;52544;48.116;11.660;2023-01-27T06:11:25;95689.28;;;-1.40;100.00
65800;BME280;52544;48.116;11.660;2023-01-27T06:13:51;95696.00;;;-1.34;100.00
65800;BME280;52544;48.116;11.660;2023-01-27T06:16:19;95695.31;;;-1.39;100.00
65800;BME280;52544;48.116;11.660;2023-01-27T06:18:46;95697.84;;;-1.38;100.00
65800;BME280;52544;48.116;11.660;2023-01-27T06:21:13;95696.06;;;-1.36;100.00
65800;BME280;52544;48.116;11.660;2023-01-27T06:23:39;95693.47;;;-1.36;100.00
65800;BME280;52544;48.116;11.660;2023-01-27T06:26:16;95690.97;;;-1.39;100.00
65800;BME280;52544;48.116;11.660;2023-01-27T06:28:42;95699.78;;;-1.43;100.00
65800;BME280;52544;48.116;11.660;2023-01-27T06:31:19;95698.03;;;-1.42;100.00
65800;BME280;52544;48.116;11.660;2023-01-27T06:33:45;95708.41;;;-1.42;100.00
65800;BME280;52544;48.116;11.660;2023-01-27T06:36:13;95701.38;;;-1.39;100.00
65800;BME280;52544;48.116;11.660;2023-01-27T06:38:38;95713.66;;;-1.44;100.00
65800;BME280;52544;48.116;11.660;2023-01-27T06:41:04;95707.41;;;-1.38;100.00
65800;BME280;52544;48.116;11.660;2023-01-27T06:43:30;95718.72;;;-1.41;100.00
65800;BME280;52544;48.116;11.660;2023-01-27T06:45:56;95727.31;;;-1.39;100.00
65800;BME280;52544;48.116;11.660;2023-01-27T06:48:22;95729.00;;;-1.38;100.00
65800;BME280;52544;48.116;11.660;2023-01-27T06:50:48;95722.81;;;-1.34;100.00
65800;BME280;52544;48.116;11.660;2023-01-27T06:53:13;95726.25;;;-1.33;100.00
65800;BME280;52544;48.116;11.660;2023-01-27T06:55:38;95720.94;;;-1.30;100.00
65800;BME280;52544;48.116;11.660;2023-01-27T06:58:07;95727.06;;;-1.31;100.00
65800;BME280;52544;48.116;11.660;2023-01-27T07:00:33;95729.81;;;-1.36;100.00
65800;BME280;52544;48.116;11.660;2023-01-27T07:02:58;95726.31;;;-1.35;100.00
65800;BME280;52544;48.116;11.660;2023-01-27T07:05:24;95728.75;;;-1.30;100.00
65800;BME280;52544;48.116;11.660;2023-01-27T07:07:49;95726.91;;;-1.28;100.00
65800;BME280;52544;48.116;11.660;2023-01-27T07:10:15;95731.53;;;-1.36;100.00
65800;BME280;52544;48.116;11.660;2023-01-27T07:12:41;95732.25;;;-1.31;100.00
65800;BME280;52544;48.116;11.660;2023-01-27T07:15:07;95727.31;;;-1.39;100.00
65800;BME280;52544;48.116;11.660;2023-01-27T07:17:33;95732.34;;;-1.34;100.00
65800;BME280;52544;48.116;11.660;2023-01-27T07:19:59;95723.47;;;-1.29;100.00
65800;BME280;52544;48.116;11.660;2023-01-27T07:22:25;95719.88;;;-1.24;100.00
65800;BME280;52544;48.116;11.660;2023-01-27T07:24:50;95723.31;;;-1.24;100.00
65800;BME280;52544;48.116;11.660;2023-01-27T07:27:15;95723.28;;;-1.22;100.00
65800;BME280;52544;48.116;11.660;2023-01-27T07:29:41;95721.44;;;-1.20;100.00
65800;BME280;52544;48.116;11.660;2023-01-27T07:32:06;95717.84;;;-1.16;100.00
65800;BME280;52544;48.116;11.660;2023-01-27T07:34:32;95717.91;;;-1.18;100.00
65800;BME280;52544;48.116;11.660;2023-01-27T07:36:57;95730.03;;;-1.18;100.00
65800;BME280;52544;48.116;11.660;2023-01-27T07:39:23;95723.88;;;-1.16;100.00
65800;BME280;52544;48.116;11.660;2023-01-27T07:41:51;95730.81;;;-1.16;100.00
65800;BME280;52544;48.116;11.660;2023-01-27T07:44:17;95735.25;;;-1.18;100.00
65800;BME280;52544;48.116;11.660;2023-01-27T07:46:42;95726.75;;;-1.23;100.00
65800;BME280;52544;48.116;11.660;2023-01-27T07:49:08;95729.41;;;-1.25;100.00
65800;BME280;52544;48.116;11.660;2023-01-27T07:51:33;95726.88;;;-1.27;100.00
65800;BME280;52544;48.116;11.660;2023-01-27T07:53:59;95725.06;;;-1.24;100.00
65800;BME280;52544;48.116;11.660;2023-01-27T07:56:24;95724.97;;;-1.21;100.00
65800;BME280;52544;48.116;11.660;2023-01-27T07:58:52;95726.53;;;-1.17;100.00
65800;BME280;52544;48.116;11.660;2023-01-27T08:01:18;95726.75;;;-1.23;100.00
65800;BME280;52544;48.116;11.660;2023-01-27T08:03:43;95730.75;;;-1.15;100.00
65800;BME280;52544;48.116;11.660;2023-01-27T08:06:10;95730.59;;;-1.10;100.00
65800;BME280;52544;48.116;11.660;2023-01-27T08:08:36;95734.09;;;-1.11;100.00
65800;BME280;52544;48.116;11.660;2023-01-27T08:11:04;95729.81;;;-1.12;100.00
65800;BME280;52544;48.116;11.660;2023-01-27T08:13:32;95735.63;;;-1.06;100.00
65800;BME280;52544;48.116;11.660;2023-01-27T08:15:58;95731.38;;;-1.08;100.00
65800;BME280;52544;48.116;11.660;2023-01-27T08:18:25;95741.66;;;-1.05;100.00
65800;BME280;52544;48.116;11.660;2023-01-27T08:20:52;95733.25;;;-1.12;100.00
65800;BME280;52544;48.116;11.660;2023-01-27T08:23:20;95742.50;;;-1.05;100.00
65800;BME280;52544;48.116;11.660;2023-01-27T08:25:51;95745.94;;;-1.04;100.00
65800;BME280;52544;48.116;11.660;2023-01-27T08:28:18;95735.00;;;-1.12;100.00
65800;BME280;52544;48.116;11.660;2023-01-27T08:30:45;95739.28;;;-1.11;100.00
65800;BME280;52544;48.116;11.660;2023-01-27T08:33:11;95737.50;;;-1.09;100.00
65800;BME280;52544;48.116;11.660;2023-01-27T08:35:36;95738.41;;;-1.10;100.00
65800;BME280;52544;48.116;11.660;2023-01-27T08:38:04;95749.63;;;-1.10;100.00
65800;BME280;52544;48.116;11.660;2023-01-27T08:40:29;95752.16;;;-1.08;100.00
65800;BME280;52544;48.116;11.660;2023-01-27T08:42:55;95758.94;;;-1.04;100.00
65800;BME280;52544;48.116;11.660;2023-01-27T08:45:20;95773.75;;;-1.06;100.00
65800;BME280;52544;48.116;11.660;2023-01-27T08:47:46;95765.03;;;-1.05;100.00
65800;BME280;52544;48.116;11.660;2023-01-27T08:50:11;95767.69;;;-1.07;100.00
65800;BME280;52544;48.116;11.660;2023-01-27T08:52:37;95773.03;;;-1.11;100.00
65800;BME280;52544;48.116;11.660;2023-01-27T08:55:03;95768.59;;;-1.08;100.00
65800;BME280;52544;48.116;11.660;2023-01-27T08:57:28;95775.25;;;-1.01;100.00
65800;BME280;52544;48.116;11.660;2023-01-27T08:59:57;95774.53;;;-1.04;100.00
65800;BME280;52544;48.116;11.660;2023-01-27T09:02:23;95777.06;;;-1.03;100.00
65800;BME280;52544;48.116;11.660;2023-01-27T09:04:49;95779.63;;;-1.01;100.00
65800;BME280;52544;48.116;11.660;2023-01-27T09:07:16;95768.25;;;-0.98;100.00
65800;BME280;52544;48.116;11.660;2023-01-27T09:09:41;95768.38;;;-1.02;100.00
65800;BME280;52544;48.116;11.660;2023-01-27T09:12:07;95764.69;;;-0.96;100.00
65800;BME280;52544;48.116;11.660;2023-01-27T09:14:32;95756.09;;;-0.98;100.00
65800;BME280;52544;48.116;11.660;2023-01-27T09:16:58;95772.38;;;-0.93;100.00
65800;BME280;52544;48.116;11.660;2023-01-27T09:19:23;95774.28;;;-0.98;100.00
65800;BME280;52544;48.116;11.660;2023-01-27T09:21:49;95773.16;;;-0.91;100.00
65800;BME280;52544;48.116;11.660;2023-01-27T09:24:14;95774.56;;;-0.82;100.00
65800;BME280;52544;48.116;11.660;2023-01-27T09:26:42;95776.16;;;-0.78;100.00
65800;BME280;52544;48.116;11.660;2023-01-27T09:29:08;95775.88;;;-0.70;100.00
65800;BME280;52544;48.116;11.660;2023-01-27T09:31:33;95776.88;;;-0.74;100.00
65800;BME280;52544;48.116;11.660;2023-01-27T09:33:59;95782.19;;;-0.78;100.00
65800;BME280;52544;48.116;11.660;2023-01-27T09:36:24;95783.28;;;-0.83;100.00
65800;BME280;52544;48.116;11.660;2023-01-27T09:38:58;95785.94;;;-0.85;100.00
65800;BME280;52544;48.116;11.660;2023-01-27T09:55:10;95784.56;;;-0.71;100.00
65800;BME280;52544;48.116;11.660;2023-01-27T09:58:15;95781.91;;;-0.70;100.00
65800;BME280;52544;48.116;11.660;2023-01-27T10:06:11;95781.66;;;-0.64;100.00
65800;BME280;52544;48.116;11.660;2023-01-27T10:09:03;95788.50;;;-0.61;100.00
65800;BME280;52544;48.116;11.660;2023-01-27T10:14:26;95786.09;;;-0.44;100.00
65800;BME280;52544;48.116;11.660;2023-01-27T10:22:26;95796.56;;;-0.45;100.00
65800;BME280;52544;48.116;11.660;2023-01-27T10:27:57;95781.56;;;-0.39;100.00
65800;BME280;52544;48.116;11.660;2023-01-27T10:30:34;95793.16;;;-0.47;100.00
65800;BME280;52544;48.116;11.660;2023-01-27T10:33:10;95795.28;;;-0.35;100.00
65800;BME280;52544;48.116;11.660;2023-01-27T10:35:53;95797.84;;;-0.34;100.00
65800;BME280;52544;48.116;11.660;2023-01-27T10:41:49;95797.53;;;-0.26;100.00
65800;BME280;52544;48.116;11.660;2023-01-27T10:44:34;95804.38;;;-0.23;100.00
65800;BME280;52544;48.116;11.660;2023-01-27T10:47:10;95799.94;;;-0.21;100.00
65800;BME280;52544;48.116;11.660;2023-01-27T10:52:13;95802.03;;;-0.30;100.00
65800;BME280;52544;48.116;11.660;2023-01-27T10:54:50;95799.06;;;-0.20;100.00
65800;BME280;52544;48.116;11.660;2023-01-27T10:57:26;95800.94;;;-0.24;100.00
65800;BME280;52544;48.116;11.660;2023-01-27T11:00:01;95799.16;;;-0.23;100.00
65800;BME280;52544;48.116;11.660;2023-01-27T11:02:44;95794.75;;;-0.21;100.00
65800;BME280;52544;48.116;11.660;2023-01-27T11:05:18;95796.81;;;-0.30;100.00
65800;BME280;52544;48.116;11.660;2023-01-27T11:07:50;95802.31;;;-0.37;100.00
65800;BME280;52544;48.116;11.660;2023-01-27T11:10:17;95802.25;;;-0.36;100.00
65800;BME280;52544;48.116;11.660;2023-01-27T11:12:46;95798.88;;;-0.38;100.00
65800;BME280;52544;48.116;11.660;2023-01-27T11:15:27;95797.84;;;-0.34;100.00
65800;BME280;52544;48.116;11.660;2023-01-27T11:18:02;95790.94;;;-0.35;100.00
65800;BME280;52544;48.116;11.660;2023-01-27T11:20:31;95789.88;;;-0.29;100.00
65800;BME280;52544;48.116;11.660;2023-01-27T11:23:09;95785.63;;;-0.32;100.00
65800;BME280;52544;48.116;11.660;2023-01-27T11:25:49;95786.47;;;-0.31;100.00
65800;BME280;52544;48.116;11.660;2023-01-27T11:34:14;95786.66;;;-0.36;100.00
65800;BME280;52544;48.116;11.660;2023-01-27T11:36:40;95788.47;;;-0.38;100.00
65800;BME280;52544;48.116;11.660;2023-01-27T11:39:09;95787.56;;;-0.37;100.00
65800;BME280;52544;48.116;11.660;2023-01-27T11:41:40;95781.63;;;-0.40;100.00
65800;BME280;52544;48.116;11.660;2023-01-27T11:44:18;95784.53;;;-0.48;100.00
65800;BME280;52544;48.116;11.660;2023-01-27T11:46:46;95784.28;;;-0.42;100.00
65800;BME280;52544;48.116;11.660;2023-01-27T11:49:23;95779.09;;;-0.42;100.00
65800;BME280;52544;48.116;11.660;2023-01-27T11:51:50;95780.72;;;-0.39;100.00
65800;BME280;52544;48.116;11.660;2023-01-27T11:54:24;95782.75;;;-0.47;100.00
65800;BME280;52544;48.116;11.660;2023-01-27T11:56:51;95778.09;;;-0.39;100.00
65800;BME280;52544;48.116;11.660;2023-01-27T11:59:27;95785.72;;;-0.35;100.00
65800;BME280;52544;48.116;11.660;2023-01-27T12:04:54;95778.38;;;-0.45;100.00
65800;BME280;52544;48.116;11.660;2023-01-27T12:07:34;95775.78;;;-0.45;100.00
65800;BME280;52544;48.116;11.660;2023-01-27T12:10:21;95778.72;;;-0.55;100.00
65800;BME280;52544;48.116;11.660;2023-01-27T12:12:47;95777.38;;;-0.43;100.00
65800;BME280;52544;48.116;11.660;2023-01-27T12:15:17;95773.91;;;-0.42;100.00
65800;BME280;52544;48.116;11.660;2023-01-27T12:17:47;95771.41;;;-0.45;100.00
65800;BME280;52544;48.116;11.660;2023-01-27T12:20:22;95771.13;;;-0.37;100.00
65800;BME280;52544;48.116;11.660;2023-01-27T12:22:55;95780.31;;;-0.29;100.00
65800;BME280;52544;48.116;11.660;2023-01-27T12:25:51;95773.47;;;-0.31;100.00
65800;BME280;52544;48.116;11.660;2023-01-27T12:28:42;95775.84;;;-0.25;100.00
65800;BME280;52544;48.116;11.660;2023-01-27T12:31:22;95763.59;;;-0.23;100.00
65800;BME280;52544;48.116;11.660;2023-01-27T12:33:58;95767.94;;;-0.23;100.00
65800;BME280;52544;48.116;11.660;2023-01-27T12:36:24;95770.66;;;-0.27;100.00
65800;BME280;52544;48.116;11.660;2023-01-27T12:38:53;95769.63;;;-0.22;100.00
65800;BME280;52544;48.116;11.660;2023-01-27T12:41:26;95774.31;;;-0.31;100.00
65800;BME280;52544;48.116;11.660;2023-01-27T12:44:16;95761.56;;;-0.37;100.00
65800;BME280;52544;48.116;11.660;2023-01-27T12:46:57;95770.28;;;-0.38;100.00
65800;BME280;52544;48.116;11.660;2023-01-27T12:49:24;95772.13;;;-0.41;100.00
65800;BME280;52544;48.116;11.660;2023-01-27T12:51:55;95766.44;;;-0.51;100.00
65800;BME280;52544;48.116;11.660;2023-01-27T12:54:24;95763.97;;;-0.54;100.00
65800;BME280;52544;48.116;11.660;2023-01-27T12:56:53;95763.06;;;-0.53;100.00
65800;BME280;52544;48.116;11.660;2023-01-27T12:59:22;95762.22;;;-0.54;100.00
65800;BME280;52544;48.116;11.660;2023-01-27T13:02:08;95768.06;;;-0.48;100.00
65800;BME280;52544;48.116;11.660;2023-01-27T13:04:40;95755.91;;;-0.48;100.00
65800;BME280;52544;48.116;11.660;2023-01-27T13:07:12;95761.09;;;-0.46;100.00
65800;BME280;52544;48.116;11.660;2023-01-27T13:10:05;95761.59;;;-0.38;100.00
65800;BME280;52544;48.116;11.660;2023-01-27T13:12:54;95756.25;;;-0.34;100.00
65800;BME280;52544;48.116;11.660;2023-01-27T13:15:22;95754.66;;;-0.38;100.00
65800;BME280;52544;48.116;11.660;2023-01-27T13:22:46;95755.88;;;-0.24;100.00
65800;BME280;52544;48.116;11.660;2023-01-27T13:25:25;95755.88;;;-0.24;100.00
65800;BME280;52544;48.116;11.660;2023-01-27T13:27:55;95753.06;;;-0.20;100.00
65800;BME280;52544;48.116;11.660;2023-01-27T13:30:40;95750.28;;;-0.15;100.00
65800;BME280;52544;48.116;11.660;2023-01-27T13:33:38;95757.44;;;-0.20;100.00
65800;BME280;52544;48.116;11.660;2023-01-27T13:38:56;95759.31;;;-0.24;100.00
65800;BME280;52544;48.116;11.660;2023-01-27T13:41:33;95752.22;;;-0.20;100.00
65800;BME280;52544;48.116;11.660;2023-01-27T13:44:16;95753.00;;;-0.18;100.00
65800;BME280;52544;48.116;11.660;2023-01-27T13:46:46;95765.06;;;-0.16;100.00
65800;BME280;52544;48.116;11.660;2023-01-27T13:49:36;95760.81;;;-0.18;100.00
65800;BME280;52544;48.116;11.660;2023-01-27T13:52:16;95767.88;;;-0.22;100.00
65800;BME280;52544;48.116;11.660;2023-01-27T13:54:49;95766.84;;;-0.18;100.00